LEWISTON (LEW)

Elevation: 1870' · TRINITY R basin · Operator: US Bureau of Reclamation

Provisional data, subject to change.
Query executed Sunday at 11:47:58   clock

Select a sensor type for a plot of data.
Note: Reservoir Flows are daily averages.

Earlier

Date RES ELE    STORAGE    RES CHG    OUTFLOW    INFLOW    EVAP    RIV REL    SPILL    DIS PWR   
 FEET   AF   AF   CFS   CFS   CFS   CFS   CFS   CFS  
03/21/2014 1901.16 14031 -30 762 749 2 293 154 0
03/22/2014 1900.85 13801 -230 727 614 3 293 154 0
03/23/2014 1900.74 13720 -81 791 753 3 291 152 0
03/24/2014 1900.60 13617 -103 812 763 3 289 150 0
03/25/2014 1900.81 13771 154 739 820 3 289 150 0
03/26/2014 1900.66 13661 -110 760 706 1 295 156 0
03/27/2014 1901.07 13963 302 817 972 3 299 160 0
03/28/2014 1901.48 14270 307 793 950 2 300 161 0
03/29/2014 1901.32 14150 -120 882 823 1 303 164 0
03/30/2014 1901.30 14135 -15 653 647 2 301 162 0
03/31/2014 1901.57 14337 202 797 901 2 304 165 0
04/01/2014 1901.27 14113 -224 793 681 1 303 164 0
04/02/2014 1901.63 14382 269 793 930 1 299 160 0
04/03/2014 1901.37 14188 -194 950 854 2 321 182 0
04/04/2014 1901.61 14367 179 1703 1795 2 319 180 0
04/05/2014 1901.24 14091 -276 1720 1582 1 316 177 0
04/06/2014 1901.89 14577 486 1732 1981 4 316 177 0
04/07/2014 1901.25 14098 -479 1785 1547 3 314 177 0
04/08/2014 1901.78 14494 396 1753 1957 4 317 178 0
04/09/2014 1901.40 14210 -284 1796 1659 6 313 174 0
04/10/2014 1901.59 14352 142 1758 1834 4 318 179 0
04/11/2014 1901.53 14307 -45 1745 1726 4 315 176 0
04/12/2014 1901.52 14300 -7 1788 1788 4 315 176 0
04/13/2014 1901.54 14315 15 1791 1804 5 315 176 0
04/14/2014 1901.50 14285 -30 1657 1647 5 314 175 0
04/15/2014 1901.25 14098 -187 1781 1691 4 317 178 0
04/16/2014 1901.46 14255 157 1800 1884 5 317 178 0
04/17/2014 1901.23 14083 -172 1839 1756 4 318 179 0
04/18/2014 1901.50 14285 202 1828 1935 5 317 178 0
04/19/2014 1901.38 14195 -90 1901 1860 4 315 176 0
04/20/2014 -- -- -- -- -- -- -- -- --

Later | Latest

Warning! This data is preliminary and subject to revision.

Download Data Now Download Data Now | Show LEW Map | Plot LEW Data | 1 Month LEW Data | Real-Time LEW Data | LEW Info